Time;durP1;ratioP1;P1;durP2;ratioP2;P2;SDS_P1;SDS_P2;PMS_P1;PMS_P2;Temp;Humidity;BMP_temperature;BMP_pressure;BME280_temperature;BME280_humidity;BME280_pressure;Samples;Min_cycle;Max_cycle;Signal;HPM_P1;HPM_P2
2022/01/08 00:01:40;;;;;;;25.00;12.55;;;-1.10;29.90;;;-1.04;91.82;99373.47;4959954;28;129751;-74
2022/01/08 00:04:09;;;;;;;24.55;12.35;;;-1.10;29.40;;;-1.09;92.23;99376.84;4964042;28;120640;-75
2022/01/08 00:06:38;;;;;;;26.90;12.63;;;-1.10;29.70;;;-1.05;92.20;99379.03;4946417;28;120632;-75
2022/01/08 00:09:07;;;;;;;23.70;11.90;;;-1.10;30.10;;;-1.22;92.98;99376.31;4978782;28;129395;-75
2022/01/08 00:11:35;;;;;;;24.35;11.98;;;-1.20;30.20;;;-1.10;91.91;99380.56;4960941;28;129932;-74
2022/01/08 00:14:05;;;;;;;24.88;11.18;;;-1.20;30.10;;;-1.13;91.92;99374.91;4961068;28;120160;-72
2022/01/08 00:16:37;;;;;;;25.20;11.88;;;-1.20;30.00;;;-1.24;92.30;99378.41;4946344;28;121013;-75
2022/01/08 00:19:06;;;;;;;27.17;12.15;;;-1.30;30.00;;;-1.35;92.79;99388.06;4945200;28;128728;-74
2022/01/08 00:21:35;;;;;;;26.95;12.65;;;-1.40;31.40;;;-1.53;93.73;99381.81;4947137;28;130001;-74
2022/01/08 00:24:09;;;;;;;25.20;12.05;;;-1.50;33.70;;;-1.63;94.06;99392.28;4961137;28;120369;-73
2022/01/08 00:26:38;;;;;;;27.50;13.75;;;-1.70;35.60;;;-1.84;95.14;99391.00;4944503;28;120896;-74
2022/01/08 00:29:06;;;;;;;21.73;12.50;;;-1.80;38.90;;;-1.96;95.73;99383.06;4963611;28;130561;-73
2022/01/08 00:31:36;;;;;;;24.13;12.40;;;-1.90;41.40;;;-1.98;95.30;99387.78;4960162;28;129341;-73
2022/01/08 00:34:07;;;;;;;27.00;13.10;;;-2.00;42.90;;;-2.18;96.53;99380.97;4961415;28;119613;-73
2022/01/08 00:36:36;;;;;;;21.10;12.70;;;-2.20;46.40;;;-2.26;96.74;99383.97;4961108;28;119514;-73
2022/01/08 00:39:06;;;;;;;28.33;13.18;;;-2.20;48.50;;;-2.27;96.31;99377.03;4960677;28;129823;-73
2022/01/08 00:41:34;;;;;;;25.83;12.85;;;-2.40;49.00;;;-2.47;97.19;99389.84;4945393;28;128458;-73
2022/01/08 00:44:03;;;;;;;20.02;11.98;;;-2.40;52.20;;;-2.57;97.54;99388.53;4959286;28;122038;-73
2022/01/08 00:46:31;;;;;;;25.42;12.80;;;-2.50;53.90;;;-2.68;97.52;99386.66;4960650;28;122014;-73
2022/01/08 00:49:02;;;;;;;28.00;12.68;;;-2.60;56.30;;;-2.79;98.33;99398.06;4947743;28;129659;-74
2022/01/08 00:51:31;;;;;;;26.40;12.38;;;-2.70;57.50;;;-2.90;99.08;99387.19;4949386;28;131227;-74
2022/01/08 00:54:02;;;;;;;27.13;12.45;;;-2.80;59.60;;;-2.96;98.80;99396.03;4964415;28;119586;-73
2022/01/08 00:56:30;;;;;;;26.50;12.55;;;-2.90;61.30;;;-2.87;98.28;99393.06;4963505;28;119807;-73
2022/01/08 00:59:03;;;;;;;23.65;12.45;;;-2.90;60.90;;;-3.10;99.05;99395.41;4963812;28;129915;-73
2022/01/08 01:01:34;;;;;;;25.08;12.48;;;-2.90;65.00;;;-3.11;99.24;99392.97;4964301;28;130856;-73
2022/01/08 01:04:07;;;;;;;25.85;13.32;;;-3.00;65.00;;;-3.21;99.88;99388.22;4963738;28;119661;-73
2022/01/08 01:06:38;;;;;;;31.65;14.93;;;-3.00;68.30;;;-3.27;100.00;99389.91;4963409;28;119615;-73
2022/01/08 01:09:06;;;;;;;30.38;14.60;;;-3.10;68.30;;;-3.29;100.00;99386.66;4943821;28;129952;-73
2022/01/08 01:11:37;;;;;;;33.05;15.50;;;-3.10;69.70;;;-3.35;100.00;99397.34;4961992;28;129985;-73
2022/01/08 01:14:06;;;;;;;28.35;13.57;;;-3.20;70.40;;;-3.37;100.00;99389.59;4963488;28;119815;-74
2022/01/08 01:16:35;;;;;;;29.25;14.05;;;-3.20;72.00;;;-3.26;100.00;99382.75;4963421;28;118682;-73
2022/01/08 01:19:05;;;;;;;26.15;13.60;;;-3.20;72.40;;;-3.33;100.00;99368.75;4963741;28;130189;-74
2022/01/08 01:21:33;;;;;;;27.08;14.80;;;-3.30;72.40;;;-3.38;99.97;99372.09;4965933;28;130843;-74
2022/01/08 01:24:08;;;;;;;29.67;15.15;;;-3.40;73.10;;;-3.39;100.00;99377.63;4967045;28;120820;-74
2022/01/08 01:26:46;;;;;;;27.92;14.65;;;-3.40;73.90;;;-3.42;100.00;99381.50;4964227;28;121335;-74
2022/01/08 01:29:29;;;;;;;27.98;15.43;;;-3.50;75.50;;;-3.40;100.00;99376.78;4963046;28;129816;-74
2022/01/08 01:43:22;;;;;;;30.13;14.02;;;-3.70;84.50;;;-3.72;100.00;99366.34;4959589;28;130376;-74
2022/01/08 01:48:36;;;;;;;24.40;13.98;;;-3.80;86.10;;;-3.79;100.00;99365.59;4965783;28;119755;-74
2022/01/08 01:51:07;;;;;;;29.95;14.20;;;-3.80;88.70;;;-3.81;100.00;99370.31;4963258;28;130965;-74
2022/01/08 01:53:35;;;;;;;36.28;14.90;;;-3.80;89.30;;;-3.92;100.00;99363.09;4964508;28;130183;-74
2022/01/08 01:56:06;;;;;;;26.25;15.05;;;-3.80;90.60;;;-3.88;100.00;99366.91;4963789;28;120517;-74
2022/01/08 01:58:34;;;;;;;29.33;13.32;;;-3.80;90.40;;;-3.80;100.00;99364.00;4962555;28;119629;-74
2022/01/08 02:01:03;;;;;;;30.65;14.48;;;-3.80;89.80;;;-3.76;100.00;99365.16;4963768;28;130119;-73
2022/01/08 02:03:32;;;;;;;22.88;13.43;;;-3.90;89.50;;;-3.75;100.00;99358.84;4961897;28;129625;-73
2022/01/08 02:06:00;;;;;;;34.03;15.32;;;-4.00;89.20;;;-3.76;100.00;99365.16;4961935;28;119630;-74
2022/01/08 02:08:31;;;;;;;31.00;13.38;;;-4.10;90.00;;;-3.84;99.64;99362.81;4963293;28;119825;-74
2022/01/08 02:11:00;;;;;;;28.67;13.07;;;-4.10;91.10;;;-3.77;100.00;99368.03;4960889;28;130109;-73
2022/01/08 02:13:31;;;;;;;27.05;15.10;;;-4.10;91.00;;;-3.82;100.00;99358.06;4962788;28;129637;-74
2022/01/08 02:16:02;;;;;;;26.20;14.02;;;-4.10;92.10;;;-3.82;99.86;99355.44;4963367;28;118568;-74
2022/01/08 02:18:30;;;;;;;25.08;12.93;;;-4.00;91.80;;;-3.84;99.91;99360.16;4962740;28;120041;-74
2022/01/08 02:21:03;;;;;;;25.30;12.98;;;-4.00;92.40;;;-3.82;99.47;99356.25;4961535;28;129796;-73
2022/01/08 02:23:31;;;;;;;28.40;14.05;;;-4.10;92.50;;;-3.93;100.00;99353.50;4962931;28;129864;-74
2022/01/08 02:26:04;;;;;;;36.65;14.57;;;-4.00;93.70;;;-3.87;100.00;99363.25;4959595;28;121934;-74
2022/01/08 02:28:35;;;;;;;24.60;12.52;;;-4.00;92.70;;;-3.84;99.59;99357.50;4974650;28;122278;-74
2022/01/08 02:31:05;;;;;;;26.08;13.48;;;-4.10;92.40;;;-3.82;99.38;99355.44;4962130;28;130671;-74
2022/01/08 02:33:36;;;;;;;29.80;14.05;;;-4.10;92.00;;;-3.87;99.42;99352.63;4963631;28;129669;-74
2022/01/08 02:36:09;;;;;;;25.27;11.68;;;-4.10;92.30;;;-3.86;99.36;99348.97;4962322;28;119798;-74
2022/01/08 02:38:38;;;;;;;26.55;12.85;;;-4.10;92.10;;;-3.85;99.33;99346.09;4961941;28;119298;-74
2022/01/08 02:41:09;;;;;;;24.27;11.80;;;-4.10;92.00;;;-3.80;98.50;99342.78;4961366;28;130363;-74
2022/01/08 02:43:44;;;;;;;24.05;12.63;;;-4.20;91.80;;;-3.76;98.61;99343.13;4962014;28;130871;-74
2022/01/08 02:46:13;;;;;;;23.63;12.25;;;-4.20;91.80;;;-3.72;97.74;99344.31;4963918;28;120354;-74
2022/01/08 02:48:42;;;;;;;27.52;13.85;;;-4.30;92.00;;;-3.77;97.43;99350.28;4965547;28;119307;-73
2022/01/08 02:51:11;;;;;;;23.10;11.55;;;-4.20;91.60;;;-3.87;98.25;99342.03;4964374;28;129936;-74
2022/01/08 02:53:41;;;;;;;23.95;12.90;;;-4.10;92.60;;;-3.90;98.46;99342.47;4947491;28;129698;-74
2022/01/08 02:56:10;;;;;;;29.23;13.25;;;-4.10;91.60;;;-3.82;97.74;99339.50;4962454;28;119763;-74
2022/01/08 02:58:38;;;;;;;26.67;12.63;;;-4.10;90.60;;;-3.80;97.59;99342.78;4961266;28;119906;-75
2022/01/08 03:01:07;;;;;;;26.50;11.52;;;-4.10;90.00;;;-3.80;97.09;99343.59;4962192;28;129887;-74
2022/01/08 03:03:35;;;;;;;23.95;12.27;;;-4.00;89.20;;;-3.77;97.18;99345.00;4946746;28;130071;-74
2022/01/08 03:06:05;;;;;;;25.40;12.48;;;-4.00;87.90;;;-3.69;97.17;99349.19;4964785;28;119344;-73
2022/01/08 03:08:36;;;;;;;24.70;11.80;;;-4.00;86.70;;;-3.63;96.52;99343.78;4962582;28;123689;-73
2022/01/08 03:11:04;;;;;;;25.00;11.43;;;-4.00;85.80;;;-3.64;95.87;99347.47;4960706;28;130226;-73
2022/01/08 03:13:33;;;;;;;19.65;10.82;;;-4.00;85.20;;;-3.71;96.16;99341.44;4960061;28;130412;-73
2022/01/08 03:16:01;;;;;;;22.77;11.43;;;-3.90;82.50;;;-3.70;96.18;99342.25;4960003;28;122352;-73
2022/01/08 03:18:32;;;;;;;23.23;11.15;;;-3.90;79.00;;;-3.81;95.98;99343.78;4960978;28;123143;-73
2022/01/08 03:21:11;;;;;;;26.15;11.85;;;-3.90;73.20;;;-3.89;95.97;99355.50;4962357;28;130158;-73
2022/01/08 03:23:48;;;;;;;22.42;11.75;;;-3.90;68.90;;;-3.85;96.24;99355.88;4956120;28;130727;-73
2022/01/08 03:26:17;;;;;;;;;;;-3.90;64.00;;;-4.00;95.21;99349.09;4944756;28;119527;-74
2022/01/08 03:28:47;;;;;;;22.60;10.75;;;-3.90;60.20;;;-3.93;95.95;99353.50;4946844;28;119603;-74
2022/01/08 03:31:17;;;;;;;22.55;10.75;;;-4.00;58.10;;;-4.00;95.36;99354.41;4960618;28;130412;-73
2022/01/08 03:33:47;;;;;;;24.02;10.82;;;-4.00;56.20;;;-4.13;95.80;99359.81;4955776;28;130327;-73
2022/01/08 03:36:17;;;;;;;18.98;10.13;;;-4.00;53.60;;;-4.29;96.00;99365.69;4962423;28;120311;-74
2022/01/08 03:38:47;;;;;;;22.17;10.70;;;-4.00;51.50;;;-4.28;95.83;99356.72;4954418;28;119379;-74
2022/01/08 03:41:16;;;;;;;24.60;9.77;;;-4.00;48.10;;;-4.41;96.06;99363.75;4944597;28;128778;-74
2022/01/08 03:43:45;;;;;;;21.23;9.82;;;-4.00;45.50;;;-4.54;96.44;99366.50;4964389;28;130018;-75
2022/01/08 03:46:21;;;;;;;19.45;10.00;;;-4.10;42.90;;;-4.58;96.54;99373.25;4961075;28;119743;-74
2022/01/08 03:49:12;;;;;;;16.42;8.27;;;-4.10;41.30;;;-4.68;97.00;99375.56;4958381;28;120242;-75
2022/01/08 03:51:41;;;;;;;24.33;8.80;;;-4.20;40.10;;;-4.63;96.69;99375.72;4960815;28;130227;-74
2022/01/08 03:54:13;;;;;;;17.02;8.20;;;-4.20;38.60;;;-4.69;95.99;99380.03;4961308;28;130067;-74
2022/01/08 03:56:42;;;;;;;17.67;9.07;;;-4.20;37.60;;;-4.63;95.69;99381.03;4962612;28;120629;-74
2022/01/08 03:59:11;;;;;;;22.50;10.00;;;-4.30;37.60;;;-4.63;96.17;99375.72;4963264;28;119824;-74
2022/01/08 04:01:40;;;;;;;19.63;8.23;;;-4.30;38.20;;;-4.68;95.76;99378.22;4963445;28;129380;-74
2022/01/08 04:04:08;;;;;;;17.10;8.30;;;-4.40;38.80;;;-4.59;95.34;99364.50;4963860;28;129993;-73
2022/01/08 04:06:37;;;;;;;18.80;8.65;;;-4.40;38.80;;;-4.75;95.55;99368.47;4959331;28;121669;-73
2022/01/08 04:09:05;;;;;;;17.95;8.85;;;-4.50;39.80;;;-4.63;94.84;99370.44;4960134;28;122281;-73
2022/01/08 04:11:35;;;;;;;17.20;7.90;;;-4.50;38.00;;;-4.65;94.79;99361.91;4959148;28;130086;-73
2022/01/08 04:14:04;;;;;;;18.60;9.55;;;-4.60;37.60;;;-4.75;94.81;99365.03;4962439;28;130507;-73
2022/01/08 04:16:36;;;;;;;19.50;8.35;;;-4.60;37.80;;;-4.84;95.08;99364.47;4959812;28;119798;-73
2022/01/08 04:19:05;;;;;;;19.92;7.75;;;-4.50;37.80;;;-4.88;95.27;99364.09;4961409;28;119299;-73
2022/01/08 04:24:19;;;;;;;19.45;8.98;;;-4.60;37.20;;;-4.85;95.26;99368.13;4956258;28;131540;-73
2022/01/08 04:26:48;;;;;;;14.90;8.13;;;-4.60;36.40;;;-4.85;94.94;99357.53;4967142;28;119627;-74
2022/01/08 04:29:17;;;;;;;16.83;7.50;;;-4.60;35.90;;;-4.93;94.61;99360.44;4951596;28;118174;-74
2022/01/08 04:31:46;;;;;;;15.98;7.78;;;-4.60;34.10;;;-4.92;94.33;99362.09;4965394;28;129517;-74
2022/01/08 04:34:14;;;;;;;15.55;7.78;;;-4.60;33.00;;;-5.03;94.77;99349.50;4951551;28;128926;-74
2022/01/08 04:36:43;;;;;;;16.67;7.20;;;-4.50;30.70;;;-4.97;94.35;99353.94;4967564;28;120009;-74
2022/01/08 04:39:12;;;;;;;20.58;8.18;;;-4.50;29.40;;;-4.89;93.62;99348.41;4967291;28;119459;-74
2022/01/08 04:41:43;;;;;;;17.98;7.97;;;-4.60;27.80;;;-4.87;93.37;99346.38;4969896;28;129794;-73
2022/01/08 04:44:13;;;;;;;15.43;7.57;;;-4.70;27.70;;;-4.78;92.57;99341.63;4966947;28;129924;-73
2022/01/08 04:46:42;;;;;;;16.92;8.45;;;-4.70;27.80;;;-4.86;92.59;99340.06;4968154;28;120556;-73
2022/01/08 04:49:10;;;;;;;17.95;7.68;;;-4.80;28.00;;;-4.87;93.17;99338.41;4969285;28;119597;-74
2022/01/08 04:51:39;;;;;;;16.83;7.88;;;-4.80;29.00;;;-4.85;92.47;99340.84;4968483;28;130615;-73
2022/01/08 04:54:17;;;;;;;16.50;7.53;;;-4.90;28.80;;;-4.95;92.83;99350.06;4966978;28;130190;-74
2022/01/08 04:56:46;;;;;;;18.33;7.78;;;-4.90;29.30;;;-4.83;92.33;99338.78;4966318;28;121707;-74
2022/01/08 04:59:16;;;;;;;20.25;7.93;;;-4.90;29.30;;;-4.99;92.95;99337.47;4966921;28;122194;-74
2022/01/08 05:01:45;;;;;;;15.25;7.88;;;-4.90;31.50;;;-5.00;92.61;99349.09;4959535;28;129815;-74
2022/01/08 05:04:14;;;;;;;19.95;8.63;;;-5.00;31.10;;;-5.03;92.72;99338.91;4952250;28;130593;-74
2022/01/08 05:06:43;;;;;;;16.67;7.97;;;-5.00;31.20;;;-5.04;92.92;99337.31;4967299;28;120856;-74
2022/01/08 05:09:12;;;;;;;15.27;7.43;;;-5.00;31.90;;;-5.20;93.75;99338.59;4970104;28;119562;-75
2022/01/08 05:11:43;;;;;;;15.48;7.53;;;-5.00;32.60;;;-5.13;93.28;99339.41;4966695;28;130415;-73
2022/01/08 05:14:16;;;;;;;17.70;7.97;;;-5.10;32.10;;;-5.10;93.16;99339.78;4968391;28;130350;-74
2022/01/08 05:16:49;;;;;;;17.17;7.70;;;-5.10;32.70;;;-5.17;93.08;99336.38;4941560;28;118348;-73
2022/01/08 05:19:24;;;;;;;17.77;8.15;;;-5.10;33.40;;;-5.19;93.30;99329.66;4951414;28;119137;-74
2022/01/08 05:21:57;;;;;;;15.98;8.82;;;-5.10;33.70;;;-5.15;93.22;99331.66;4965690;28;129464;-74
2022/01/08 05:24:29;;;;;;;15.75;6.93;;;-5.10;33.00;;;-5.09;93.02;99336.09;4964872;28;130462;-74
2022/01/08 05:26:57;;;;;;;17.55;7.97;;;-5.10;32.90;;;-5.09;93.07;99346.69;4951009;28;119162;-73
2022/01/08 05:29:29;;;;;;;17.98;7.95;;;-5.10;34.40;;;-4.98;92.69;99347.06;4950297;28;119245;-73
2022/01/08 05:31:58;;;;;;;15.40;7.85;;;-5.10;34.10;;;-4.99;92.84;99345.41;4968673;28;129078;-73
2022/01/08 05:34:27;;;;;;;15.23;7.70;;;-5.00;34.40;;;-4.97;92.34;99352.13;4964077;28;129982;-74
2022/01/08 05:36:56;;;;;;;15.05;7.38;;;-5.00;33.90;;;-4.94;92.06;99342.94;4961709;28;120312;-74
2022/01/08 05:39:25;;;;;;;17.58;8.35;;;-5.00;33.40;;;-4.91;91.96;99348.63;4964004;28;120445;-74
2022/01/08 05:41:53;;;;;;;15.38;7.95;;;-5.00;33.20;;;-4.93;91.60;99360.44;4946826;28;129474;-74
2022/01/08 05:44:23;;;;;;;15.18;7.88;;;-5.00;33.10;;;-4.85;92.24;99359.38;4961579;28;129922;-74
2022/01/08 05:46:53;;;;;;;18.25;8.10;;;-5.00;32.90;;;-4.79;91.75;99366.47;4962117;28;122492;-73
2022/01/08 05:49:24;;;;;;;16.95;8.02;;;-5.00;32.80;;;-4.79;91.33;99372.56;4961853;28;121817;-74
2022/01/08 05:51:53;;;;;;;16.98;7.72;;;-4.90;32.70;;;-4.81;91.70;99369.34;4980637;28;128623;-73
2022/01/08 05:54:21;;;;;;;15.93;7.95;;;-4.90;31.80;;;-4.76;91.25;99361.56;4965235;28;129750;-80
2022/01/08 05:56:51;;;;;;;14.38;7.20;;;-4.90;31.40;;;-4.88;91.21;99363.25;4948627;28;119024;-73
2022/01/08 05:59:21;;;;;;;15.10;7.25;;;-4.90;30.20;;;-4.80;91.83;99349.78;4961623;28;119724;-72
2022/01/08 06:01:49;;;;;;;18.02;7.78;;;-5.00;29.70;;;-4.81;91.29;99348.16;4956414;28;130664;-73
2022/01/08 06:04:22;;;;;;;15.80;8.45;;;-5.00;30.00;;;-4.87;91.10;99355.09;4963627;28;129950;-73
2022/01/08 06:06:51;;;;;;;18.33;8.88;;;-5.00;30.00;;;-4.76;90.76;99347.50;4962341;28;119956;-73
2022/01/08 06:09:22;;;;;;;15.18;8.10;;;-5.00;29.60;;;-4.79;90.76;99364.63;4961806;28;119886;-73
2022/01/08 06:11:54;;;;;;;17.60;8.45;;;-5.00;29.50;;;-4.84;90.41;99377.69;4960649;28;130567;-73
2022/01/08 06:14:23;;;;;;;19.10;8.32;;;-5.10;29.40;;;-5.03;91.68;99370.69;4960866;28;129243;-73
2022/01/08 06:16:51;;;;;;;16.83;8.15;;;-5.10;30.30;;;-5.01;91.45;99380.03;4962549;28;119889;-73
2022/01/08 06:19:21;;;;;;;20.63;8.27;;;-5.10;29.90;;;-5.10;91.70;99379.47;4946384;28;118483;-73
2022/01/08 06:21:50;;;;;;;12.65;7.10;;;-5.10;30.00;;;-5.07;91.23;99373.75;4962243;28;129699;-73
2022/01/08 06:24:18;;;;;;;14.90;7.80;;;-5.20;29.80;;;-5.01;91.22;99373.94;4960506;28;129895;-73
2022/01/08 06:26:47;;;;;;;17.50;7.65;;;-5.20;29.70;;;-5.15;91.52;99374.00;4962710;28;120033;-73
2022/01/08 06:29:15;;;;;;;15.63;7.68;;;-5.10;29.30;;;-5.20;91.50;99376.47;4940407;28;119463;-73
2022/01/08 06:31:44;;;;;;;13.38;7.38;;;-5.20;28.80;;;-5.16;91.19;99361.78;4964263;28;130801;-73
2022/01/08 06:34:13;;;;;;;16.27;7.90;;;-5.20;28.50;;;-5.10;90.95;99368.88;4960383;28;129628;-73
2022/01/08 06:36:43;;;;;;;14.93;7.45;;;-5.20;28.30;;;-5.21;91.20;99369.56;4928612;28;121199;-75
2022/01/08 06:39:15;;;;;;;16.80;7.00;;;-5.20;28.40;;;-5.10;91.75;99376.81;4961725;28;121961;-72
2022/01/08 06:41:44;;;;;;;14.15;6.90;;;-5.20;28.10;;;-4.90;90.58;99381.19;4960440;28;129668;-73
2022/01/08 06:44:18;;;;;;;15.35;7.80;;;-5.20;27.80;;;-4.78;89.28;99394.59;4942671;28;128619;-73
2022/01/08 06:46:46;;;;;;;15.95;8.27;;;-5.10;27.60;;;-4.89;89.97;99388.94;4939484;28;118977;-73
2022/01/08 06:49:16;;;;;;;18.88;8.60;;;-5.10;27.50;;;-4.90;89.50;99386.50;4930729;28;118837;-72
2022/01/08 06:51:45;;;;;;;12.32;6.63;;;-5.10;25.70;;;-4.80;88.78;99381.56;4962263;28;130036;-73
2022/01/08 06:54:14;;;;;;;13.95;7.43;;;-5.00;24.10;;;-4.85;88.79;99378.72;4961136;28;130607;-73
2022/01/08 06:56:50;;;;;;;14.82;7.18;;;-4.90;23.00;;;-4.67;88.35;99380.66;4961485;28;119222;-72
2022/01/08 06:59:19;;;;;;;14.65;6.57;;;-4.90;22.30;;;-4.81;89.39;99369.34;4957206;28;119499;-73
2022/01/08 07:01:48;;;;;;;15.25;6.97;;;-4.80;20.60;;;-4.65;88.03;99367.19;4960285;28;130041;-72
2022/01/08 07:04:16;;;;;;;15.40;7.45;;;-4.80;19.20;;;-4.50;87.03;99373.00;4961588;28;130139;-72
2022/01/08 07:06:47;;;;;;;12.13;6.60;;;-4.80;18.30;;;-4.49;87.23;99377.25;4954850;28;119468;-73
2022/01/08 07:09:16;;;;;;;14.00;7.43;;;-4.70;17.60;;;-4.59;87.46;99376.94;4963533;28;119418;-72
2022/01/08 07:11:44;;;;;;;12.45;6.80;;;-4.70;16.10;;;-4.35;86.08;99368.19;4963813;28;131063;-73
2022/01/08 07:14:13;;;;;;;13.10;6.78;;;-4.60;14.90;;;-4.28;85.87;99378.72;4961144;28;129638;-73
2022/01/08 07:16:41;;;;;;;14.60;6.28;;;-4.60;14.30;;;-4.24;85.58;99379.09;4960900;28;119468;-73
2022/01/08 07:19:12;;;;;;;13.15;6.53;;;-4.50;13.10;;;-4.15;84.80;99377.78;4962411;28;119864;-73
2022/01/08 07:21:41;;;;;;;14.20;6.25;;;-4.50;12.30;;;-4.10;84.24;99369.19;4961868;28;130784;-73
2022/01/08 07:24:11;;;;;;;16.83;6.43;;;-4.50;11.00;;;-3.99;84.16;99371.94;4959686;28;130501;-73
2022/01/08 07:26:42;;;;;;;13.77;7.25;;;-4.40;10.20;;;-3.81;83.12;99368.47;4961531;28;121988;-73
2022/01/08 07:29:11;;;;;;;13.50;7.30;;;-4.40;9.90;;;-3.84;82.71;99368.91;4961472;28;121739;-73
2022/01/08 07:31:40;;;;;;;14.15;6.65;;;-4.40;9.10;;;-3.87;83.36;99377.31;4960402;28;130826;-73
2022/01/08 07:34:09;;;;;;;13.43;6.95;;;-4.40;9.50;;;-3.88;83.14;99377.53;4945550;28;129424;-73
2022/01/08 07:36:37;;;;;;;11.50;5.93;;;-4.40;9.00;;;-3.97;83.17;99379.66;4963769;28;120377;-73
2022/01/08 07:39:06;;;;;;;12.98;6.22;;;-4.50;8.20;;;-4.09;83.22;99382.22;4961089;28;119675;-73
2022/01/08 07:41:36;;;;;;;10.93;6.18;;;-4.50;7.80;;;-4.15;83.45;99372.47;4960102;28;130000;-73
2022/01/08 07:44:05;;;;;;;15.70;7.28;;;-4.50;7.90;;;-4.07;83.02;99366.88;4929906;28;129555;-72
2022/01/08 07:46:33;;;;;;;14.82;6.88;;;-4.50;7.80;;;-4.06;82.83;99357.13;4961862;28;119743;-72
2022/01/08 07:49:02;;;;;;;13.70;6.88;;;-4.50;7.50;;;-3.95;82.47;99371.50;4963676;28;119200;-73
2022/01/08 07:51:33;;;;;;;13.52;6.03;;;-4.50;7.60;;;-4.08;82.85;99367.94;4958481;28;130508;-73
2022/01/08 07:54:02;;;;;;;12.18;5.97;;;-4.50;8.10;;;-4.05;82.69;99361.38;4962848;28;130040;-73
2022/01/08 07:56:30;;;;;;;11.65;6.18;;;-4.40;7.30;;;-4.12;83.62;99372.03;4959933;28;119693;-73
2022/01/08 07:59:01;;;;;;;16.40;6.60;;;-4.40;6.90;;;-3.95;82.28;99355.59;4944900;28;119080;-73
2022/01/08 08:01:31;;;;;;;14.82;6.93;;;-4.40;5.70;;;-3.92;81.99;99360.44;4962088;28;130289;-73
2022/01/08 08:03:59;;;;;;;11.70;6.30;;;-4.30;4.90;;;-3.63;81.16;99365.03;4960363;28;129902;-73
2022/01/08 08:06:32;;;;;;;14.38;6.75;;;-4.20;4.10;;;-3.21;80.13;99361.66;4945266;28;119399;-72
2022/01/08 08:09:00;;;;;;;14.20;6.30;;;-4.00;3.30;;;-2.66;77.22;99362.53;4962868;28;120049;-73
2022/01/08 08:11:29;;;;;;;13.13;6.05;;;-3.70;1.00;;;-2.47;75.55;99355.28;4959920;28;129690;-73
2022/01/08 08:13:58;;;;;;;14.43;6.50;;;-3.40;1.00;;;-2.55;75.23;99357.22;4960438;28;129826;-73
2022/01/08 08:16:28;;;;;;;11.15;6.10;;;-3.30;1.00;;;-2.38;73.91;99367.19;4959023;28;121945;-73
2022/01/08 08:18:56;;;;;;;14.60;6.20;;;-3.20;1.00;;;-1.82;73.00;99373.78;4945792;28;121845;-73
2022/01/08 08:21:25;;;;;;;11.82;5.95;;;-3.00;1.00;;;-1.45;71.46;99370.84;4959111;28;130510;-73
2022/01/08 08:23:54;;;;;;;13.25;7.22;;;-2.60;1.00;;;-1.75;70.51;99362.22;4960250;28;129947;-74
2022/01/08 08:26:22;;;;;;;12.95;7.15;;;-2.70;1.00;;;-1.43;70.19;99375.09;4962626;28;119997;-73
2022/01/08 08:28:56;;;;;;;13.68;6.47;;;-2.70;1.00;;;-1.27;69.29;99367.16;4960373;28;119534;-73
2022/01/08 08:31:25;;;;;;;12.07;7.00;;;-2.60;1.00;;;-1.10;68.47;99359.25;4944268;28;129274;-74
2022/01/08 08:33:58;;;;;;;12.93;5.85;;;-2.50;1.00;;;-1.12;67.75;99361.34;4960956;28;129700;-74
2022/01/08 08:36:27;;;;;;;16.13;6.18;;;-2.60;1.00;;;-0.89;67.83;99364.94;4958920;28;119621;-74
2022/01/08 08:38:56;;;;;;;14.40;6.50;;;-2.40;1.00;;;-0.81;66.28;99361.91;4958894;28;119494;-73
2022/01/08 08:41:24;;;;;;;14.73;6.40;;;-2.40;1.00;;;-0.67;66.29;99358.91;4942733;28;129200;-73
2022/01/08 08:43:53;;;;;;;13.18;6.45;;;-2.30;1.00;;;-0.79;66.62;99349.13;4959326;28;129948;-73
2022/01/08 08:46:22;;;;;;;14.77;6.78;;;-2.30;1.00;;;-0.65;66.76;99359.50;4958334;28;120189;-73
2022/01/08 08:48:53;;;;;;;14.52;7.00;;;-2.30;1.00;;;-0.51;65.57;99355.47;4962732;28;119749;-69
2022/01/08 08:51:29;;;;;;;13.77;7.13;;;-2.20;1.00;;;-0.57;65.44;99353.78;4955979;28;130314;-69
2022/01/08 08:53:58;;;;;;;17.27;7.25;;;-2.20;1.00;;;-0.52;65.77;99358.38;4957731;28;129756;-69
2022/01/08 08:56:27;;;;;;;16.20;7.00;;;-2.20;1.00;;;-0.51;65.34;99344.81;4958183;28;119729;-68
2022/01/08 08:58:56;;;;;;;11.98;6.70;;;-2.20;1.00;;;-0.56;65.01;99344.72;4958846;28;119671;-69
2022/01/08 09:01:27;;;;;;;33.40;16.95;;;-2.20;1.00;;;-0.61;65.43;99347.28;4959299;28;129633;-68
2022/01/08 09:03:58;;;;;;;30.55;15.32;;;-2.20;1.00;;;-0.71;64.99;99333.81;4960776;28;130353;-68
2022/01/08 09:06:35;;;;;;;21.92;8.55;;;-2.20;1.00;;;-0.78;65.47;99334.78;4941212;28;122100;-69
2022/01/08 09:09:08;;;;;;;14.07;7.72;;;-2.30;1.00;;;-0.61;63.27;99347.28;4954306;28;121856;-69
2022/01/08 09:11:39;;;;;;;13.98;6.72;;;-2.20;1.00;;;-0.97;63.76;99347.47;4960378;28;129813;-69
2022/01/08 09:14:08;;;;;;;15.13;7.20;;;-2.20;1.00;;;-1.07;64.66;99352.63;4961531;28;129814;-69
2022/01/08 09:16:37;;;;;;;39.70;18.90;;;-2.30;1.00;;;-1.19;64.40;99339.34;4961551;28;120864;-69
2022/01/08 09:19:07;;;;;;;55.63;26.40;;;-2.30;1.00;;;-1.13;64.83;99343.75;4962445;28;120192;-69
2022/01/08 09:21:38;;;;;;;21.23;11.07;;;-2.30;1.00;;;-1.35;64.51;99345.47;4946216;28;129984;-69
2022/01/08 09:24:07;;;;;;;22.05;9.95;;;-2.30;1.00;;;-1.43;64.58;99351.97;4961612;28;129870;-69
2022/01/08 09:26:35;;;;;;;14.82;8.98;;;-2.30;1.00;;;-1.64;65.42;99348.06;4963114;28;119525;-69
2022/01/08 09:29:04;;;;;;;20.40;11.55;;;-2.50;1.00;;;-1.46;64.52;99345.25;4964418;28;119511;-69
2022/01/08 09:31:33;;;;;;;15.45;7.88;;;-2.40;1.00;;;-1.52;64.68;99346.19;4959744;28;129845;-69
2022/01/08 09:34:02;;;;;;;14.65;7.70;;;-2.50;1.00;;;-1.53;64.84;99347.22;4941017;28;129269;-69
2022/01/08 09:36:31;;;;;;;13.82;7.25;;;-2.50;1.00;;;-1.34;64.71;99344.38;4945355;28;119578;-69
2022/01/08 09:39:01;;;;;;;12.85;6.75;;;-2.50;1.00;;;-1.72;64.72;99343.13;4958049;28;119207;-69
2022/01/08 09:41:30;;;;;;;14.95;7.35;;;-2.50;1.00;;;-1.48;66.20;99342.03;4955402;28;129694;-69
2022/01/08 09:43:59;;;;;;;14.93;6.78;;;-2.40;1.00;;;-1.53;65.33;99344.56;4961564;28;129762;-69
2022/01/08 09:46:27;;;;;;;17.20;7.40;;;-2.50;1.00;;;-1.52;65.80;99340.88;4945570;28;118457;-67
2022/01/08 09:48:56;;;;;;;12.18;6.55;;;-2.40;1.00;;;-1.36;65.49;99343.84;4959420;28;119994;-67
2022/01/08 09:51:26;;;;;;;15.00;7.28;;;-2.40;1.00;;;-1.47;65.86;99338.28;4957935;28;103307;-67
2022/01/08 09:53:57;;;;;;;14.43;7.45;;;-2.40;1.00;;;-1.17;65.44;99329.31;4962073;28;130239;-67
2022/01/08 09:56:29;;;;;;;14.43;7.15;;;-2.30;1.00;;;-1.05;64.66;99329.22;4957714;28;122096;-68
2022/01/08 09:58:58;;;;;;;15.18;8.27;;;-2.20;1.00;;;-1.24;64.91;99325.97;4959744;28;122419;-68
2022/01/08 10:01:30;;;;;;;14.73;7.90;;;-2.20;1.00;;;-1.27;65.48;99337.09;4958455;28;129900;-68
2022/01/08 10:04:01;;;;;;;25.90;12.73;;;-2.20;1.00;;;-1.23;65.32;99324.91;4945875;28;130076;-68
2022/01/08 10:06:36;;;;;;;25.95;13.30;;;-2.20;1.00;;;-1.23;65.72;99310.78;4962290;28;120004;-68
2022/01/08 10:09:06;;;;;;;14.38;8.10;;;-2.20;1.00;;;-1.04;64.95;99311.38;4961114;28;119165;-68
2022/01/08 10:11:48;;;;;;;18.95;10.40;;;-2.20;1.00;;;-1.01;64.48;99308.25;4960722;28;129866;-68
2022/01/08 10:14:29;;;;;;;14.63;7.75;;;-2.10;1.00;;;-0.70;63.41;99308.75;4960109;28;129736;-68
2022/01/08 10:17:16;;;;;;;19.45;8.35;;;-2.00;1.00;;;-0.66;63.37;99293.91;4940875;28;118487;-68
2022/01/08 10:19:48;;;;;;;18.63;7.47;;;-1.90;1.00;;;-0.86;64.01;99299.72;4961571;28;119987;-68
2022/01/08 10:22:19;;;;;;;20.90;7.95;;;-1.90;1.00;;;-0.88;63.46;99286.63;4959320;28;129859;-68
2022/01/08 10:24:48;;;;;;;18.00;8.63;;;-1.90;1.00;;;-0.85;63.82;99286.16;4955940;28;130203;-68
2022/01/08 10:27:18;;;;;;;18.10;8.57;;;-2.00;1.00;;;-0.87;63.91;99277.59;4960413;28;119475;-68
2022/01/08 10:30:00;;;;;;;13.80;7.00;;;-2.00;1.00;;;-0.87;63.91;99272.28;4959051;28;119114;-69
2022/01/08 10:32:29;;;;;;;20.02;8.25;;;-2.10;1.00;;;-1.13;65.44;99266.50;4959962;28;129733;-69
2022/01/08 10:34:57;;;;;;;14.15;7.22;;;-2.10;1.00;;;-1.20;65.55;99260.53;4962010;28;130452;-69